Almont, MI

9:46 PM EDT on May 26, 2015 (GMT -0400)
Village of Leonard | | Change Station
CLOSE
Current Station
Personal Weather Station
Location: Leonard, MI
Elevation: 1014 ft
Nearby Weather Stations

Elev 1014 ft 42.87 °N, 83.15 °W | Updated 6 seconds ago

Rain
Rain
70.3 °F
Feels Like 70.3 °F
N
4.0
Wind Variable Wind from South
Gusts 4.9 mph

Today
High -- | Low -- °F
--% Chance of Precip.
Yesterday
High -- | Low -- °F
Precip. -- in
5:59 AM 8:59 PM
Waxing Gibbous, 63% visible
Pressure 29.88 in
Visibility 10.0 miles
Clouds Scattered Clouds 2800 ft
Mostly Cloudy 4200 ft
Mostly Cloudy 11000 ft
Dew Point 70 °F
Humidity 98%
Rainfall 0.33 in
Snow Depth Not available.
UV 0 out of 12
Pollen 7.70 out of 12
Air Quality Not available.
Flu Activity Sporadic
METAR KD95 270133Z AUTO 21009KT 10SM SCT028 BKN042 BKN110 21/19 A2988 RMK AO2 T02080190

More Conditions Fewer Conditions

Pressure 29.88 in
Visibility 10.0 miles
Clouds Scattered Clouds 2800 ft
Mostly Cloudy 4200 ft
Mostly Cloudy 11000 ft
Dew Point 70 °F
Humidity 98%
Rainfall 0.33 in
Snow Depth Not available.
UV 0 out of 12
Pollen 7.70 out of 12
Air Quality Not available.
Flu Activity Sporadic
METAR KD95 270133Z AUTO 21009KT 10SM SCT028 BKN042 BKN110 21/19 A2988 RMK AO2 T02080190

More Conditions Fewer Conditions

10-Day Weather Forecast

Almanac

Astronomy

May. 26, 2015 Rise Set
Actual Time
Civil Twilight
Nautical Twilight
Astronomical Twilight
Moon
Length of Visible Light
Length of Day
Tomorrow will be .
, % of the Moon is Illuminated

Today's Extremes

State Highs State Lows

Community

WunderPhotos

Upload Photos

1,824,549 photos uploaded!

WunderBlogs® & News

Nearby

Air Quality

  Air Quality AQ Index Pollutant
Not available.

Snow Depth

Station Depth Elevation

Earthquake Activity

City Distance Mag. Time & Date
Minimum magnitude displayed is 2.5.

Coastal Water Temperatures

Place Temperature

Stations

Nearby Weather Stations

Station Location Temp. Windchill Dew Point Humidity Wind Precip. Elev Updated Type